Time;durP1;ratioP1;P1;durP2;ratioP2;P2;SDS_P1;SDS_P2;PMS_P1;PMS_P2;Temp;Humidity;BMP_temperature;BMP_pressure;BME280_temperature;BME280_humidity;BME280_pressure;Samples;Min_cycle;Max_cycle;Signal;HPM_P1;HPM_P2
2022/09/17 00:00:49;;;;;;;0.20;0.10;;;;;;;;;;4983198;28;20046;-89
2022/09/17 00:03:19;;;;;;;0.45;0.20;;;;;;;;;;4967432;28;20258;-88
2022/09/17 00:05:45;;;;;;;0.20;0.10;;;;;;;;;;4981880;28;20619;-88
2022/09/17 00:08:16;;;;;;;0.20;0.10;;;;;;;;;;4969479;28;20033;-89
2022/09/17 00:10:46;;;;;;;0.20;0.10;;;;;;;;;;4985052;28;20036;-88
2022/09/17 00:13:20;;;;;;;0.20;0.10;;;;;;;;;;4984062;28;20081;-89
2022/09/17 00:15:55;;;;;;;0.20;0.10;;;;;;;;;;4968716;28;20116;-89
2022/09/17 00:18:32;;;;;;;0.20;0.10;;;;;;;;;;4973600;28;20570;-90
2022/09/17 00:21:02;;;;;;;0.20;0.10;;;;;;;;;;4998262;28;20048;-88
2022/09/17 00:23:39;;;;;;;0.20;0.10;;;;;;;;;;4963747;28;20050;-89
2022/09/17 00:26:16;;;;;;;0.20;0.10;;;;;;;;;;4963547;28;20057;-90
2022/09/17 00:28:49;;;;;;;0.20;0.10;;;;;;;;;;4981279;23;20116;-89
2022/09/17 00:31:31;;;;;;;0.20;0.10;;;;;;;;;;4966424;28;20519;-87
2022/09/17 00:34:13;;;;;;;0.20;0.10;;;;;;;;;;4966653;28;20120;-90
2022/09/17 00:36:57;;;;;;;0.35;0.28;;;;;;;;;;4966537;28;20049;-90
2022/09/17 00:39:23;;;;;;;0.20;0.10;;;;;;;;;;4984034;28;20076;-87
2022/09/17 00:42:04;;;;;;;0.20;0.10;;;;;;;;;;4984666;28;20149;-86
2022/09/17 00:44:45;;;;;;;0.20;0.10;;;;;;;;;;4994277;23;20045;-89
2022/09/17 00:47:30;;;;;;;0.20;0.10;;;;;;;;;;4979697;28;20049;-88
2022/09/17 00:50:07;;;;;;;0.20;0.10;;;;;;;;;;4982918;28;20080;-86
2022/09/17 00:52:43;;;;;;;0.20;0.10;;;;;;;;;;4982641;28;20061;-86
2022/09/17 00:55:35;;;;;;;0.20;0.10;;;;;;;;;;4999428;28;20050;-85
2022/09/17 00:58:03;;;;;;;0.20;0.10;;;;;;;;;;4966013;28;20390;-85
2022/09/17 01:00:29;;;;;;;0.20;0.10;;;;;;;;;;4983785;28;20073;-86
2022/09/17 01:03:01;;;;;;;0.20;0.10;;;;;;;;;;4979529;28;20100;-87
2022/09/17 01:05:49;;;;;;;0.20;0.10;;;;;;;;;;4982600;28;21570;-90
2022/09/17 01:08:21;;;;;;;0.20;0.10;;;;;;;;;;4980285;28;20363;-87
2022/09/17 01:11:00;;;;;;;0.20;0.10;;;;;;;;;;4979308;28;20129;-86
2022/09/17 01:13:29;;;;;;;0.20;0.20;;;;;;;;;;4977199;28;20038;-87
2022/09/17 01:16:05;;;;;;;0.20;0.10;;;;;;;;;;4976725;28;20155;-83
2022/09/17 01:18:31;;;;;;;0.20;0.10;;;;;;;;;;4994317;28;20124;-86
2022/09/17 01:21:03;;;;;;;0.20;0.10;;;;;;;;;;4975903;28;20073;-85
2022/09/17 01:23:31;;;;;;;0.20;0.10;;;;;;;;;;4991764;28;20369;-86
2022/09/17 01:26:16;;;;;;;0.20;0.10;;;;;;;;;;4979878;28;20095;-86
2022/09/17 01:29:01;;;;;;;0.20;0.10;;;;;;;;;;4991826;28;20467;-86
2022/09/17 01:31:51;;;;;;;0.20;0.10;;;;;;;;;;4991593;28;20038;-89
2022/09/17 01:34:26;;;;;;;0.20;0.10;;;;;;;;;;4973906;28;22615;-86
2022/09/17 01:36:52;;;;;;;0.20;0.10;;;;;;;;;;4975514;28;20069;-85
2022/09/17 01:39:27;;;;;;;0.20;0.10;;;;;;;;;;4976258;28;20048;-86
2022/09/17 01:41:56;;;;;;;0.20;0.10;;;;;;;;;;4988098;28;20120;-85
2022/09/17 01:44:22;;;;;;;0.20;0.10;;;;;;;;;;4991309;28;20270;-87
2022/09/17 01:46:57;;;;;;;0.20;0.10;;;;;;;;;;4975503;28;20042;-87
2022/09/17 01:49:26;;;;;;;0.20;0.10;;;;;;;;;;4977771;28;20037;-86
2022/09/17 01:51:56;;;;;;;0.20;0.10;;;;;;;;;;4975083;28;20076;-86
2022/09/17 01:54:26;;;;;;;0.20;0.10;;;;;;;;;;4980518;28;20034;-88
2022/09/17 01:56:56;;;;;;;0.20;0.10;;;;;;;;;;4975145;28;20473;-84
2022/09/17 01:59:22;;;;;;;0.20;0.10;;;;;;;;;;4978113;28;20507;-87
2022/09/17 02:01:51;;;;;;;0.20;0.10;;;;;;;;;;4975845;28;20046;-87
2022/09/17 02:04:27;;;;;;;0.20;0.10;;;;;;;;;;4985613;28;20044;-87
2022/09/17 02:06:57;;;;;;;0.20;0.10;;;;;;;;;;4980197;28;20042;-88
2022/09/17 02:09:26;;;;;;;0.20;0.10;;;;;;;;;;4979787;28;20040;-88
2022/09/17 02:11:54;;;;;;;0.57;0.52;;;;;;;;;;4980846;28;20128;-86
2022/09/17 02:14:24;;;;;;;0.20;0.10;;;;;;;;;;4992893;28;20672;-86
2022/09/17 02:16:53;;;;;;;0.20;0.10;;;;;;;;;;4978296;28;20042;-87
2022/09/17 02:19:25;;;;;;;0.20;0.10;;;;;;;;;;4982139;28;20033;-86
2022/09/17 02:22:03;;;;;;;0.20;0.00;;;;;;;;;;4997067;28;20049;-86
2022/09/17 02:24:33;;;;;;;0.20;0.05;;;;;;;;;;4992881;28;20147;-86
2022/09/17 02:27:05;;;;;;;0.20;0.10;;;;;;;;;;4995793;28;20037;-86
2022/09/17 02:29:42;;;;;;;0.20;0.10;;;;;;;;;;4976587;28;20042;-87
2022/09/17 02:32:09;;;;;;;0.20;0.10;;;;;;;;;;4973525;28;20039;-88
2022/09/17 02:34:35;;;;;;;0.20;0.10;;;;;;;;;;4975694;28;20046;-86
2022/09/17 02:37:02;;;;;;;0.20;0.10;;;;;;;;;;4979174;28;20080;-90
2022/09/17 02:39:28;;;;;;;0.20;0.13;;;;;;;;;;4975492;28;20034;-87
2022/09/17 02:42:14;;;;;;;0.20;0.10;;;;;;;;;;4976906;28;20106;-86
2022/09/17 02:44:57;;;;;;;0.20;0.10;;;;;;;;;;4980595;28;20519;-87
2022/09/17 02:47:27;;;;;;;0.20;0.10;;;;;;;;;;4991151;28;20256;-89
2022/09/17 02:50:13;;;;;;;0.20;0.10;;;;;;;;;;4979644;28;20579;-88
2022/09/17 02:53:15;;;;;;;0.20;0.10;;;;;;;;;;4978076;28;20053;-89
2022/09/17 02:55:46;;;;;;;0.20;0.10;;;;;;;;;;4907353;28;20054;-86
2022/09/17 02:58:18;;;;;;;0.20;0.10;;;;;;;;;;4974015;28;20046;-92
2022/09/17 03:00:46;;;;;;;0.20;0.10;;;;;;;;;;5000645;28;20104;-90
2022/09/17 03:03:15;;;;;;;0.20;0.00;;;;;;;;;;4966472;28;20080;-90
2022/09/17 03:05:43;;;;;;;0.20;0.10;;;;;;;;;;5000392;28;20029;-85
2022/09/17 03:08:14;;;;;;;0.20;0.10;;;;;;;;;;5000297;28;20089;-87
2022/09/17 03:10:43;;;;;;;0.20;0.10;;;;;;;;;;4983262;28;20073;-89
2022/09/17 03:13:09;;;;;;;0.20;0.10;;;;;;;;;;4979309;28;20523;-88
2022/09/17 03:15:35;;;;;;;0.20;0.10;;;;;;;;;;4978432;28;20041;-88
2022/09/17 03:18:01;;;;;;;0.20;0.10;;;;;;;;;;4976183;28;20045;-87
2022/09/17 03:20:28;;;;;;;0.20;0.10;;;;;;;;;;4944103;28;20524;-89
2022/09/17 03:22:54;;;;;;;0.20;0.00;;;;;;;;;;4962492;28;20137;-88
2022/09/17 03:25:20;;;;;;;0.20;0.10;;;;;;;;;;4976984;28;20125;-87
2022/09/17 03:27:47;;;;;;;0.20;0.10;;;;;;;;;;4979373;28;20129;-87
2022/09/17 03:30:13;;;;;;;0.20;0.00;;;;;;;;;;4978907;28;20040;-88
2022/09/17 03:32:39;;;;;;;0.20;0.10;;;;;;;;;;4978019;28;20563;-87
2022/09/17 03:35:05;;;;;;;0.20;0.10;;;;;;;;;;4995274;28;20120;-86
2022/09/17 03:37:31;;;;;;;0.20;0.10;;;;;;;;;;4981650;28;20050;-89
2022/09/17 03:39:57;;;;;;;0.20;0.10;;;;;;;;;;4947041;28;20041;-86
2022/09/17 03:42:23;;;;;;;0.20;0.10;;;;;;;;;;4979306;28;20045;-87
2022/09/17 03:44:52;;;;;;;0.20;0.20;;;;;;;;;;4977373;28;20039;-87
2022/09/17 03:47:18;;;;;;;0.20;0.10;;;;;;;;;;4979470;28;20069;-88
2022/09/17 03:49:45;;;;;;;0.20;0.10;;;;;;;;;;4975537;28;20050;-89
2022/09/17 03:52:14;;;;;;;0.20;0.10;;;;;;;;;;4982060;28;20496;-88
2022/09/17 03:54:40;;;;;;;0.20;0.10;;;;;;;;;;4978144;28;20388;-88
2022/09/17 03:57:06;;;;;;;0.20;0.00;;;;;;;;;;4946967;28;20578;-87
2022/09/17 03:59:32;;;;;;;0.20;0.20;;;;;;;;;;4993761;28;20038;-88
2022/09/17 04:01:58;;;;;;;0.20;0.10;;;;;;;;;;4979116;28;20257;-86
2022/09/17 04:04:24;;;;;;;0.20;0.10;;;;;;;;;;4976529;28;20049;-89
2022/09/17 04:06:50;;;;;;;0.20;0.10;;;;;;;;;;4998706;28;20445;-89
2022/09/17 04:09:20;;;;;;;0.20;0.10;;;;;;;;;;4977976;28;20480;-88
2022/09/17 04:11:51;;;;;;;0.20;0.10;;;;;;;;;;4978315;28;20038;-87
2022/09/17 04:14:23;;;;;;;0.20;0.10;;;;;;;;;;4974135;28;20061;-90
2022/09/17 04:16:52;;;;;;;0.20;0.10;;;;;;;;;;4979928;28;20519;-92
2022/09/17 04:19:18;;;;;;;0.20;0.03;;;;;;;;;;4980987;28;20314;-91
2022/09/17 04:21:44;;;;;;;0.20;0.10;;;;;;;;;;4978878;28;20034;-90
2022/09/17 04:24:10;;;;;;;0.20;0.10;;;;;;;;;;4978461;28;20413;-86
2022/09/17 04:26:36;;;;;;;0.20;0.10;;;;;;;;;;4959356;28;20408;-86
2022/09/17 04:29:02;;;;;;;0.20;0.10;;;;;;;;;;4995993;28;20139;-85
2022/09/17 04:31:28;;;;;;;0.20;0.10;;;;;;;;;;4946207;28;20516;-85
2022/09/17 04:33:54;;;;;;;0.20;0.10;;;;;;;;;;4959356;28;20456;-86
2022/09/17 04:36:20;;;;;;;2.92;0.75;;;;;;;;;;4973151;28;21801;-87
2022/09/17 04:38:49;;;;;;;0.20;0.10;;;;;;;;;;4944950;28;20222;-84
2022/09/17 04:41:16;;;;;;;0.20;0.10;;;;;;;;;;4992271;28;20072;-87
2022/09/17 04:43:42;;;;;;;0.20;0.10;;;;;;;;;;4963452;28;20695;-87
2022/09/17 04:46:08;;;;;;;0.20;0.10;;;;;;;;;;4963337;28;20049;-86
2022/09/17 04:48:34;;;;;;;0.20;0.05;;;;;;;;;;4974923;28;20033;-88
2022/09/17 04:51:00;;;;;;;0.20;0.10;;;;;;;;;;4956930;28;20076;-87
2022/09/17 04:53:26;;;;;;;0.20;0.10;;;;;;;;;;4961747;28;20053;-88
2022/09/17 04:55:52;;;;;;;0.20;0.10;;;;;;;;;;4975459;28;20128;-89
2022/09/17 04:58:31;;;;;;;;;;;;;;;;;;;;;
2022/09/17 05:00:58;;;;;;;0.20;0.10;;;;;;;;;;4978709;28;20481;-87
2022/09/17 05:03:24;;;;;;;0.20;0.10;;;;;;;;;;4976835;28;20053;-90
2022/09/17 05:08:45;;;;;;;0.20;0.10;;;;;;;;;;4960151;28;20343;-88
2022/09/17 05:11:17;;;;;;;0.20;0.10;;;;;;;;;;4964606;28;20041;-87
2022/09/17 05:13:49;;;;;;;0.32;0.25;;;;;;;;;;4985337;28;20493;-90
2022/09/17 05:19:17;;;;;;;0.20;0.10;;;;;;;;;;4992524;28;20065;-88
2022/09/17 05:21:52;;;;;;;0.20;0.10;;;;;;;;;;4987923;28;20038;-91
2022/09/17 05:24:30;;;;;;;0.20;0.10;;;;;;;;;;4974871;28;20080;-88
2022/09/17 05:27:17;;;;;;;0.20;0.10;;;;;;;;;;4989395;28;20044;-88
2022/09/17 05:29:44;;;;;;;0.20;0.10;;;;;;;;;;4988479;28;20103;-89
2022/09/17 05:32:28;;;;;;;0.20;0.10;;;;;;;;;;4989186;28;20033;-90
2022/09/17 05:35:01;;;;;;;0.20;0.10;;;;;;;;;;5012676;28;20088;-90
2022/09/17 05:37:33;;;;;;;0.20;0.10;;;;;;;;;;4996933;28;20049;-89
2022/09/17 05:40:08;;;;;;;0.20;0.10;;;;;;;;;;4975441;28;20044;-89
2022/09/17 05:42:35;;;;;;;0.20;0.10;;;;;;;;;;4991255;28;20038;-90
2022/09/17 05:45:07;;;;;;;0.20;0.10;;;;;;;;;;4990681;28;20069;-88
2022/09/17 05:47:37;;;;;;;1.00;0.20;;;;;;;;;;4993294;28;20053;-90
2022/09/17 05:50:03;;;;;;;0.20;0.08;;;;;;;;;;4990893;28;20073;-88
2022/09/17 05:52:29;;;;;;;0.20;0.10;;;;;;;;;;4959868;28;20066;-91
2022/09/17 05:54:56;;;;;;;0.20;0.10;;;;;;;;;;5004780;28;20457;-87
2022/09/17 05:57:22;;;;;;;0.20;0.10;;;;;;;;;;4986245;28;20466;-85
2022/09/17 05:59:51;;;;;;;0.20;0.10;;;;;;;;;;4955085;28;20091;-87
2022/09/17 06:02:17;;;;;;;0.20;0.10;;;;;;;;;;4986211;28;20121;-89
2022/09/17 06:04:49;;;;;;;0.20;0.10;;;;;;;;;;4986606;28;20041;-88
2022/09/17 06:07:18;;;;;;;0.20;0.10;;;;;;;;;;4989455;28;20412;-85
2022/09/17 06:09:50;;;;;;;0.20;0.17;;;;;;;;;;4986121;28;20420;-87
2022/09/17 06:12:18;;;;;;;0.20;0.10;;;;;;;;;;4985221;28;20052;-88
2022/09/17 06:14:44;;;;;;;0.20;0.10;;;;;;;;;;5005735;28;20053;-85
2022/09/17 06:17:10;;;;;;;0.20;0.10;;;;;;;;;;4987666;28;20057;-86
2022/09/17 06:19:36;;;;;;;0.20;0.10;;;;;;;;;;4970276;28;20041;-89
2022/09/17 06:22:04;;;;;;;0.20;0.10;;;;;;;;;;4988148;28;20090;-87
2022/09/17 06:24:31;;;;;;;0.20;0.10;;;;;;;;;;4976589;28;20037;-87
2022/09/17 06:26:57;;;;;;;0.20;0.10;;;;;;;;;;4992428;28;20066;-84
2022/09/17 06:29:23;;;;;;;0.20;0.10;;;;;;;;;;4983007;28;20042;-86
2022/09/17 06:31:50;;;;;;;0.20;0.10;;;;;;;;;;4981189;28;20066;-87
2022/09/17 06:34:17;;;;;;;0.20;0.10;;;;;;;;;;4993395;28;20069;-88
2022/09/17 06:36:49;;;;;;;0.20;0.10;;;;;;;;;;4986829;28;20543;-89
2022/09/17 06:39:15;;;;;;;0.20;0.10;;;;;;;;;;5005999;28;20124;-86
2022/09/17 06:41:44;;;;;;;0.20;0.10;;;;;;;;;;4988822;28;20034;-88
2022/09/17 06:44:13;;;;;;;0.20;0.10;;;;;;;;;;5012277;22;20045;-85
2022/09/17 06:46:39;;;;;;;0.20;0.10;;;;;;;;;;4992284;28;20040;-84
2022/09/17 06:49:05;;;;;;;0.20;0.10;;;;;;;;;;4992370;28;20037;-85
2022/09/17 06:51:31;;;;;;;0.20;0.10;;;;;;;;;;5009058;28;20037;-83
2022/09/17 06:53:58;;;;;;;0.20;0.00;;;;;;;;;;4999193;28;21343;-84
2022/09/17 06:56:24;;;;;;;0.20;0.10;;;;;;;;;;4989951;28;20046;-84
2022/09/17 06:58:50;;;;;;;0.20;0.10;;;;;;;;;;4985014;28;20037;-84
2022/09/17 07:01:16;;;;;;;0.20;0.10;;;;;;;;;;4969184;28;20423;-85
2022/09/17 07:03:42;;;;;;;0.20;0.10;;;;;;;;;;4978894;28;20088;-86
2022/09/17 07:06:09;;;;;;;0.20;0.10;;;;;;;;;;4979113;28;20044;-87
2022/09/17 07:08:36;;;;;;;0.20;0.10;;;;;;;;;;4992267;28;20037;-85
2022/09/17 07:11:02;;;;;;;0.20;0.10;;;;;;;;;;4974555;28;20073;-85
2022/09/17 07:13:29;;;;;;;0.20;0.10;;;;;;;;;;4989682;28;20099;-84
2022/09/17 07:15:56;;;;;;;0.20;0.10;;;;;;;;;;4991158;28;20481;-83
2022/09/17 07:18:23;;;;;;;0.20;0.10;;;;;;;;;;4970603;28;20417;-84
2022/09/17 07:20:53;;;;;;;0.20;0.10;;;;;;;;;;4986341;28;20238;-84
2022/09/17 07:23:19;;;;;;;0.20;0.10;;;;;;;;;;4972811;28;20037;-83
2022/09/17 07:25:50;;;;;;;0.20;0.10;;;;;;;;;;4980145;28;20559;-83
2022/09/17 07:28:16;;;;;;;0.20;0.10;;;;;;;;;;4990685;28;20639;-83
2022/09/17 07:30:42;;;;;;;0.20;0.00;;;;;;;;;;4974392;28;22096;-84
2022/09/17 07:33:08;;;;;;;0.20;0.10;;;;;;;;;;4978196;28;20071;-83
2022/09/17 07:35:34;;;;;;;0.20;0.10;;;;;;;;;;4965040;28;20049;-82
2022/09/17 07:38:00;;;;;;;0.20;0.10;;;;;;;;;;4981137;28;20052;-84
2022/09/17 07:40:26;;;;;;;0.20;0.10;;;;;;;;;;4993520;28;20045;-85
2022/09/17 07:42:53;;;;;;;0.20;0.10;;;;;;;;;;4982768;28;21041;-82
2022/09/17 07:45:19;;;;;;;0.20;0.10;;;;;;;;;;4978810;28;20046;-86
2022/09/17 07:47:45;;;;;;;0.20;0.10;;;;;;;;;;4998857;28;20052;-85
2022/09/17 07:50:11;;;;;;;0.20;0.10;;;;;;;;;;4964151;28;22165;-84
2022/09/17 07:52:37;;;;;;;0.20;0.10;;;;;;;;;;4982842;28;20055;-86
2022/09/17 07:55:03;;;;;;;0.20;0.10;;;;;;;;;;5000203;28;20616;-84
2022/09/17 07:57:29;;;;;;;0.20;0.10;;;;;;;;;;4993305;28;20132;-87
2022/09/17 07:59:55;;;;;;;0.20;0.10;;;;;;;;;;4976749;28;20104;-83
2022/09/17 08:02:22;;;;;;;0.20;0.10;;;;;;;;;;4993532;28;20910;-83
2022/09/17 08:04:48;;;;;;;0.20;0.10;;;;;;;;;;5015305;28;20076;-84
2022/09/17 08:07:14;;;;;;;0.20;0.10;;;;;;;;;;4980596;28;20119;-85
2022/09/17 08:09:40;;;;;;;0.20;0.10;;;;;;;;;;4985000;28;20649;-84
2022/09/17 08:12:07;;;;;;;0.20;0.10;;;;;;;;;;4990008;28;20055;-84
2022/09/17 08:14:33;;;;;;;0.20;0.10;;;;;;;;;;4994915;28;20117;-84
2022/09/17 08:16:59;;;;;;;0.20;0.10;;;;;;;;;;4982517;28;20043;-86
2022/09/17 08:19:27;;;;;;;0.20;0.10;;;;;;;;;;4994039;28;20041;-83
2022/09/17 08:21:53;;;;;;;0.20;0.10;;;;;;;;;;4980587;28;20132;-86
2022/09/17 08:24:19;;;;;;;0.20;0.10;;;;;;;;;;4967133;28;20037;-85
2022/09/17 08:26:45;;;;;;;0.20;0.10;;;;;;;;;;4985322;28;20052;-84
2022/09/17 08:29:11;;;;;;;0.20;0.10;;;;;;;;;;4998784;28;20038;-87
2022/09/17 08:31:37;;;;;;;0.20;0.10;;;;;;;;;;4978095;28;20489;-86
2022/09/17 08:34:07;;;;;;;0.20;0.10;;;;;;;;;;4980890;28;20050;-84
2022/09/17 08:36:33;;;;;;;0.20;0.10;;;;;;;;;;4993100;28;20052;-85
2022/09/17 08:38:59;;;;;;;0.20;0.10;;;;;;;;;;4982552;28;20736;-85
2022/09/17 08:41:38;;;;;;;0.20;0.10;;;;;;;;;;4982515;28;20548;-84
2022/09/17 08:44:12;;;;;;;0.20;0.10;;;;;;;;;;4980252;28;20077;-82
2022/09/17 08:46:45;;;;;;;0.20;0.10;;;;;;;;;;4996195;28;20048;-85
2022/09/17 08:49:30;;;;;;;0.20;0.10;;;;;;;;;;4995919;28;20415;-84
2022/09/17 08:52:02;;;;;;;0.20;0.10;;;;;;;;;;4993709;28;20049;-86
2022/09/17 08:54:37;;;;;;;0.20;0.10;;;;;;;;;;4983873;28;20132;-84
2022/09/17 08:57:07;;;;;;;0.20;0.10;;;;;;;;;;4999695;28;20114;-84
2022/09/17 08:59:37;;;;;;;0.20;0.00;;;;;;;;;;4989624;28;20041;-83
2022/09/17 09:02:22;;;;;;;0.20;0.10;;;;;;;;;;4992991;28;20073;-83
2022/09/17 09:04:56;;;;;;;0.20;0.10;;;;;;;;;;4986048;28;20034;-84
2022/09/17 09:07:25;;;;;;;0.20;0.10;;;;;;;;;;5000238;28;20069;-84
2022/09/17 09:10:02;;;;;;;0.20;0.10;;;;;;;;;;4986276;28;20060;-84
2022/09/17 09:12:30;;;;;;;0.20;0.10;;;;;;;;;;4986816;28;20063;-83
2022/09/17 09:14:59;;;;;;;0.20;0.10;;;;;;;;;;4997953;28;20042;-84
2022/09/17 09:17:28;;;;;;;0.20;0.10;;;;;;;;;;4993895;28;20045;-86
2022/09/17 09:19:55;;;;;;;0.20;0.10;;;;;;;;;;4966170;28;20085;-82
2022/09/17 09:22:24;;;;;;;0.20;0.10;;;;;;;;;;4989694;28;20042;-86
2022/09/17 09:24:50;;;;;;;0.20;0.10;;;;;;;;;;4995565;28;20131;-83
2022/09/17 09:27:17;;;;;;;0.20;0.05;;;;;;;;;;4995231;28;20049;-81
2022/09/17 09:30:03;;;;;;;0.20;0.10;;;;;;;;;;5003965;28;20160;-83
2022/09/17 09:32:47;;;;;;;0.20;0.10;;;;;;;;;;4998220;28;20444;-83
2022/09/17 09:35:16;;;;;;;0.20;0.10;;;;;;;;;;4984688;28;20156;-83
2022/09/17 09:37:43;;;;;;;0.20;0.10;;;;;;;;;;4980562;28;20045;-82
2022/09/17 09:40:22;;;;;;;0.20;0.10;;;;;;;;;;4993375;28;20048;-83
2022/09/17 09:42:48;;;;;;;0.20;0.10;;;;;;;;;;4971615;28;20547;-82
2022/09/17 09:45:21;;;;;;;0.20;0.10;;;;;;;;;;4962135;28;20061;-84
2022/09/17 09:47:50;;;;;;;0.20;0.00;;;;;;;;;;4971159;28;20293;-85
2022/09/17 09:50:21;;;;;;;0.20;0.10;;;;;;;;;;4988514;28;20049;-82
2022/09/17 09:53:06;;;;;;;0.20;0.10;;;;;;;;;;5009868;28;20156;-83
2022/09/17 09:55:42;;;;;;;0.20;0.10;;;;;;;;;;5014541;28;20519;-83
2022/09/17 09:58:08;;;;;;;0.20;0.10;;;;;;;;;;4991078;28;20756;-84
2022/09/17 10:00:39;;;;;;;0.20;0.10;;;;;;;;;;4986429;28;20894;-82
2022/09/17 10:03:26;;;;;;;0.20;0.10;;;;;;;;;;4990902;28;20085;-82
2022/09/17 10:05:52;;;;;;;0.20;0.05;;;;;;;;;;4998434;28;20085;-81
2022/09/17 10:08:18;;;;;;;0.20;0.10;;;;;;;;;;4984496;28;20241;-88
2022/09/17 10:11:01;;;;;;;0.20;0.10;;;;;;;;;;4976601;28;20056;-84
2022/09/17 10:13:29;;;;;;;0.20;0.10;;;;;;;;;;4991246;28;20033;-83
2022/09/17 10:15:55;;;;;;;0.20;0.10;;;;;;;;;;4981593;28;20060;-82
2022/09/17 10:18:23;;;;;;;0.20;0.00;;;;;;;;;;4995828;28;20049;-83
2022/09/17 10:20:59;;;;;;;0.20;0.10;;;;;;;;;;4984308;28;20160;-84
2022/09/17 10:23:30;;;;;;;0.20;0.10;;;;;;;;;;4977317;28;20045;-85
2022/09/17 10:25:57;;;;;;;0.20;0.10;;;;;;;;;;4975769;28;20033;-82
2022/09/17 10:28:35;;;;;;;0.20;0.10;;;;;;;;;;4979789;28;20049;-84
2022/09/17 10:31:04;;;;;;;0.20;0.10;;;;;;;;;;4981533;28;20097;-83
2022/09/17 10:33:33;;;;;;;0.20;0.10;;;;;;;;;;4996338;28;20041;-83
2022/09/17 10:36:05;;;;;;;0.20;0.10;;;;;;;;;;4956404;28;20128;-83
2022/09/17 10:38:35;;;;;;;0.20;0.10;;;;;;;;;;5006526;28;20075;-83
2022/09/17 10:41:13;;;;;;;0.20;0.10;;;;;;;;;;4974660;28;20444;-82
2022/09/17 10:43:40;;;;;;;0.20;0.00;;;;;;;;;;5013592;28;20052;-82
2022/09/17 10:46:08;;;;;;;0.20;0.10;;;;;;;;;;4976924;28;20040;-80
2022/09/17 10:48:38;;;;;;;0.20;0.10;;;;;;;;;;4986839;28;20142;-80
2022/09/17 10:51:06;;;;;;;0.20;0.00;;;;;;;;;;4991621;28;20700;-84
2022/09/17 10:53:39;;;;;;;0.20;0.10;;;;;;;;;;4994643;28;20056;-84
2022/09/17 10:56:09;;;;;;;0.20;0.10;;;;;;;;;;4991218;28;20033;-83
2022/09/17 10:58:53;;;;;;;0.20;0.10;;;;;;;;;;4979255;28;20046;-83
2022/09/17 11:01:20;;;;;;;0.20;0.10;;;;;;;;;;4992625;28;20038;-83
2022/09/17 11:04:04;;;;;;;0.20;0.10;;;;;;;;;;4983383;28;20519;-86
2022/09/17 11:06:49;;;;;;;0.20;0.10;;;;;;;;;;5011015;28;20833;-81
2022/09/17 11:09:15;;;;;;;0.20;0.10;;;;;;;;;;4994267;28;20676;-84
2022/09/17 11:12:01;;;;;;;0.20;0.10;;;;;;;;;;4997770;28;20029;-83
2022/09/17 11:14:34;;;;;;;0.20;0.10;;;;;;;;;;4978001;28;20500;-84
2022/09/17 11:17:07;;;;;;;0.20;0.10;;;;;;;;;;4997085;28;20137;-85
2022/09/17 11:19:44;;;;;;;0.20;0.10;;;;;;;;;;4994636;28;20037;-85
2022/09/17 11:22:23;;;;;;;0.20;0.00;;;;;;;;;;4994763;28;20050;-83
2022/09/17 11:25:09;;;;;;;0.20;0.10;;;;;;;;;;4979729;28;20041;-81
2022/09/17 11:27:46;;;;;;;0.20;0.00;;;;;;;;;;4995373;28;20079;-85
2022/09/17 11:30:18;;;;;;;0.20;0.10;;;;;;;;;;4974950;28;21621;-84
2022/09/17 11:33:04;;;;;;;0.20;0.10;;;;;;;;;;4992371;28;20049;-83
2022/09/17 11:35:35;;;;;;;0.20;0.10;;;;;;;;;;4984719;28;20088;-85
2022/09/17 11:38:06;;;;;;;0.20;0.10;;;;;;;;;;4995614;28;20041;-83
2022/09/17 11:40:52;;;;;;;0.20;0.10;;;;;;;;;;4986788;28;20080;-83
2022/09/17 11:43:18;;;;;;;0.20;0.10;;;;;;;;;;4991119;28;20042;-83
2022/09/17 11:46:10;;;;;;;0.20;0.10;;;;;;;;;;4976388;28;20041;-83
2022/09/17 11:48:39;;;;;;;0.20;0.10;;;;;;;;;;4944086;28;20580;-83
2022/09/17 11:51:15;;;;;;;0.20;0.10;;;;;;;;;;4996581;28;20046;-83
2022/09/17 11:53:46;;;;;;;0.20;0.10;;;;;;;;;;4997310;28;20500;-83
2022/09/17 11:56:28;;;;;;;0.20;0.10;;;;;;;;;;4989278;28;20042;-82
2022/09/17 11:58:54;;;;;;;0.20;0.10;;;;;;;;;;4985648;28;20128;-81
2022/09/17 12:01:38;;;;;;;0.20;0.10;;;;;;;;;;4979633;28;20049;-84
2022/09/17 12:04:18;;;;;;;0.20;0.10;;;;;;;;;;4999719;28;20037;-82
2022/09/17 12:06:52;;;;;;;0.20;0.10;;;;;;;;;;4988536;28;20095;-82
2022/09/17 12:09:44;;;;;;;0.20;0.10;;;;;;;;;;4987848;28;20095;-85
2022/09/17 12:12:26;;;;;;;0.20;0.10;;;;;;;;;;4982239;28;20111;-88
2022/09/17 12:15:00;;;;;;;0.20;0.10;;;;;;;;;;4998320;28;20107;-83
2022/09/17 12:20:42;;;;;;;0.20;0.10;;;;;;;;;;5002006;28;20048;-82
2022/09/17 12:23:16;;;;;;;0.20;0.10;;;;;;;;;;4986889;28;20044;-83
2022/09/17 12:25:52;;;;;;;0.20;0.10;;;;;;;;;;4999967;28;20044;-86
2022/09/17 12:28:25;;;;;;;0.20;0.10;;;;;;;;;;4985890;28;20239;-83
2022/09/17 12:31:24;;;;;;;;;;;;;;;;;;;;;
2022/09/17 12:34:37;;;;;;;0.20;0.10;;;;;;;;;;4998074;28;20084;-85
2022/09/17 12:37:39;;;;;;;0.20;0.10;;;;;;;;;;4996080;28;20108;-83
2022/09/17 12:40:30;;;;;;;0.20;0.10;;;;;;;;;;4977309;28;20045;-84
2022/09/17 12:48:34;;;;;;;0.20;0.10;;;;;;;;;;4984685;23;20506;-90
2022/09/17 12:51:29;;;;;;;;;;;;;;;;;;;;;
2022/09/17 12:54:36;;;;;;;;;;;;;;;;;;;;;
2022/09/17 12:57:38;;;;;;;0.20;0.10;;;;;;;;;;4956319;28;20637;-84
2022/09/17 13:00:09;;;;;;;0.20;0.10;;;;;;;;;;4957708;28;20134;-85
2022/09/17 13:02:48;;;;;;;0.20;0.10;;;;;;;;;;4954519;28;20065;-85
2022/09/17 13:09:21;;;;;;;0.20;0.10;;;;;;;;;;4974007;28;20107;-89
2022/09/17 13:12:25;;;;;;;;;;;;;;;;;;;;;
2022/09/17 13:44:47;;;;;;;0.20;0.10;;;;;;;;;;4977754;28;20133;-86
2022/09/17 13:50:44;;;;;;;0.20;0.10;;;;;;;;;;4966600;28;20065;-84
2022/09/17 13:53:16;;;;;;;0.20;0.10;;;;;;;;;;4894673;28;20142;-87
2022/09/17 13:59:15;;;;;;;0.20;0.10;;;;;;;;;;4966224;28;20034;-84
2022/09/17 14:02:13;;;;;;;0.20;0.10;;;;;;;;;;4960196;28;21189;-82
2022/09/17 14:07:29;;;;;;;0.20;0.10;;;;;;;;;;4973199;28;20042;-86
2022/09/17 14:10:00;;;;;;;0.20;0.10;;;;;;;;;;4956162;28;20041;-87
2022/09/17 14:12:46;;;;;;;0.20;0.10;;;;;;;;;;4961412;28;20038;-84
2022/09/17 14:15:31;;;;;;;0.20;0.10;;;;;;;;;;4964237;28;20048;-85
2022/09/17 14:18:01;;;;;;;0.20;0.10;;;;;;;;;;4964474;28;20129;-84
2022/09/17 14:20:33;;;;;;;0.20;0.10;;;;;;;;;;4979213;28;20479;-85
2022/09/17 14:23:06;;;;;;;0.20;0.10;;;;;;;;;;4960995;28;20046;-82
2022/09/17 14:25:44;;;;;;;0.20;0.10;;;;;;;;;;4977415;28;20037;-84
2022/09/17 14:28:42;;;;;;;0.20;0.10;;;;;;;;;;4980820;28;20130;-84
2022/09/17 14:31:20;;;;;;;0.20;0.10;;;;;;;;;;4937653;28;20046;-84
2022/09/17 14:33:49;;;;;;;0.20;0.10;;;;;;;;;;4953053;28;20310;-86
2022/09/17 14:36:16;;;;;;;0.20;0.10;;;;;;;;;;4970572;28;20076;-88
2022/09/17 14:38:47;;;;;;;0.20;0.10;;;;;;;;;;4956140;28;20061;-83
2022/09/17 14:41:22;;;;;;;0.20;0.10;;;;;;;;;;4973065;28;20064;-87
2022/09/17 14:44:20;;;;;;;0.20;0.10;;;;;;;;;;4961117;28;20056;-85
2022/09/17 14:47:21;;;;;;;0.20;0.10;;;;;;;;;;4968500;28;20038;-85
2022/09/17 14:49:51;;;;;;;0.20;0.10;;;;;;;;;;4989999;28;20445;-86
2022/09/17 14:52:41;;;;;;;0.20;0.10;;;;;;;;;;4952310;28;20050;-86
2022/09/17 14:55:16;;;;;;;0.20;0.00;;;;;;;;;;4990266;28;20170;-84
2022/09/17 14:57:44;;;;;;;0.20;0.10;;;;;;;;;;4949375;28;20088;-88
2022/09/17 15:00:23;;;;;;;0.20;0.10;;;;;;;;;;4957382;28;20042;-85
2022/09/17 15:02:58;;;;;;;0.20;0.10;;;;;;;;;;4949051;28;20076;-84
2022/09/17 15:05:42;;;;;;;0.20;0.10;;;;;;;;;;4961377;28;20034;-88
2022/09/17 15:08:19;;;;;;;0.20;0.10;;;;;;;;;;4978506;28;20519;-84
2022/09/17 15:10:47;;;;;;;0.20;0.10;;;;;;;;;;4977469;28;20576;-89
2022/09/17 15:13:18;;;;;;;0.20;0.10;;;;;;;;;;4977007;28;20488;-88
2022/09/17 15:16:01;;;;;;;0.20;0.10;;;;;;;;;;4966298;28;20053;-87
2022/09/17 15:18:47;;;;;;;0.20;0.10;;;;;;;;;;4981939;28;20044;-86
2022/09/17 15:21:32;;;;;;;0.20;0.10;;;;;;;;;;4976419;28;20515;-87
2022/09/17 15:24:08;;;;;;;0.20;0.10;;;;;;;;;;4979814;28;20133;-88
2022/09/17 15:26:37;;;;;;;0.20;0.10;;;;;;;;;;4966672;28;20048;-87
2022/09/17 15:29:04;;;;;;;0.20;0.10;;;;;;;;;;4969006;28;20310;-88
2022/09/17 15:31:30;;;;;;;0.20;0.10;;;;;;;;;;4963595;28;20092;-87
2022/09/17 15:34:00;;;;;;;0.20;0.10;;;;;;;;;;4946883;28;20050;-84
2022/09/17 15:36:26;;;;;;;0.20;0.10;;;;;;;;;;4969035;28;20050;-86
2022/09/17 15:38:53;;;;;;;0.20;0.10;;;;;;;;;;4978493;28;20049;-87
2022/09/17 15:41:35;;;;;;;0.20;0.10;;;;;;;;;;4974130;28;20045;-86
2022/09/17 15:44:21;;;;;;;0.20;0.10;;;;;;;;;;4983015;28;20385;-87
2022/09/17 15:46:47;;;;;;;0.20;0.10;;;;;;;;;;4958376;28;20126;-85
2022/09/17 15:49:27;;;;;;;0.20;0.10;;;;;;;;;;4966061;28;20076;-86
2022/09/17 15:51:54;;;;;;;0.20;0.10;;;;;;;;;;4971382;28;20092;-87
2022/09/17 15:54:32;;;;;;;0.20;0.10;;;;;;;;;;4968561;28;20413;-90
2022/09/17 15:57:00;;;;;;;0.20;0.10;;;;;;;;;;4968092;28;20833;-85
2022/09/17 15:59:30;;;;;;;0.20;0.10;;;;;;;;;;4984444;28;20042;-86
2022/09/17 16:01:57;;;;;;;0.20;0.10;;;;;;;;;;4959052;28;20889;-85
2022/09/17 16:04:33;;;;;;;0.20;0.10;;;;;;;;;;4976664;28;20221;-86
2022/09/17 16:06:59;;;;;;;0.20;0.10;;;;;;;;;;4963517;28;20038;-83
2022/09/17 16:09:35;;;;;;;0.20;0.10;;;;;;;;;;4959511;28;20045;-85
2022/09/17 16:12:02;;;;;;;0.20;0.00;;;;;;;;;;4980599;28;20033;-87
2022/09/17 16:14:28;;;;;;;0.20;0.10;;;;;;;;;;4955519;28;20137;-85
2022/09/17 16:16:55;;;;;;;0.20;0.10;;;;;;;;;;4964625;28;20204;-88